sensor_id;sensor_type;location;lat;lon;timestamp;pressure;altitude;pressure_sealevel;temperature
5571;BMP180;2808;51.240;6.794;2023-04-01T00:00:35;98882.00;;;10.30
5571;BMP180;2808;51.240;6.794;2023-04-01T00:03:04;98885.00;;;10.30
5571;BMP180;2808;51.240;6.794;2023-04-01T00:05:31;98883.00;;;10.30
5571;BMP180;2808;51.240;6.794;2023-04-01T00:07:59;98888.00;;;10.30
5571;BMP180;2808;51.240;6.794;2023-04-01T00:10:26;98882.00;;;10.30
5571;BMP180;2808;51.240;6.794;2023-04-01T00:12:54;98884.00;;;10.30
5571;BMP180;2808;51.240;6.794;2023-04-01T00:15:21;98889.00;;;10.30
5571;BMP180;2808;51.240;6.794;2023-04-01T00:17:49;98892.00;;;10.20
5571;BMP180;2808;51.240;6.794;2023-04-01T00:20:18;98895.00;;;10.20
5571;BMP180;2808;51.240;6.794;2023-04-01T00:22:45;98890.00;;;10.20
5571;BMP180;2808;51.240;6.794;2023-04-01T00:25:13;98887.00;;;10.20
5571;BMP180;2808;51.240;6.794;2023-04-01T00:27:41;98886.00;;;10.20
5571;BMP180;2808;51.240;6.794;2023-04-01T00:30:09;98892.00;;;10.20
5571;BMP180;2808;51.240;6.794;2023-04-01T00:32:37;98897.00;;;10.20
5571;BMP180;2808;51.240;6.794;2023-04-01T00:35:05;98890.00;;;10.30
5571;BMP180;2808;51.240;6.794;2023-04-01T00:37:35;98887.00;;;10.20
5571;BMP180;2808;51.240;6.794;2023-04-01T00:40:04;98880.00;;;10.20
5571;BMP180;2808;51.240;6.794;2023-04-01T00:42:32;98881.00;;;10.20
5571;BMP180;2808;51.240;6.794;2023-04-01T00:45:25;98877.00;;;10.20
5571;BMP180;2808;51.240;6.794;2023-04-01T00:47:53;98878.00;;;10.20
5571;BMP180;2808;51.240;6.794;2023-04-01T00:50:22;98877.00;;;10.20
5571;BMP180;2808;51.240;6.794;2023-04-01T00:52:53;98875.00;;;10.20
5571;BMP180;2808;51.240;6.794;2023-04-01T00:55:21;98876.00;;;10.20
5571;BMP180;2808;51.240;6.794;2023-04-01T00:57:51;98875.00;;;10.10
5571;BMP180;2808;51.240;6.794;2023-04-01T01:00:20;98874.00;;;10.20
5571;BMP180;2808;51.240;6.794;2023-04-01T01:02:48;98875.00;;;10.20
5571;BMP180;2808;51.240;6.794;2023-04-01T01:05:20;98878.00;;;10.20
5571;BMP180;2808;51.240;6.794;2023-04-01T01:07:59;98872.00;;;10.20
5571;BMP180;2808;51.240;6.794;2023-04-01T01:10:32;98875.00;;;10.30
5571;BMP180;2808;51.240;6.794;2023-04-01T01:13:08;98866.00;;;10.20
5571;BMP180;2808;51.240;6.794;2023-04-01T01:15:41;98863.00;;;10.20
5571;BMP180;2808;51.240;6.794;2023-04-01T01:18:19;98866.00;;;10.10
5571;BMP180;2808;51.240;6.794;2023-04-01T01:24:12;98869.00;;;10.20
5571;BMP180;2808;51.240;6.794;2023-04-01T01:26:55;98861.00;;;10.20
5571;BMP180;2808;51.240;6.794;2023-04-01T01:32:39;98859.00;;;10.20
5571;BMP180;2808;51.240;6.794;2023-04-01T01:35:20;98863.00;;;10.20
5571;BMP180;2808;51.240;6.794;2023-04-01T01:37:51;98852.00;;;10.20
5571;BMP180;2808;51.240;6.794;2023-04-01T01:40:21;98863.00;;;10.20
5571;BMP180;2808;51.240;6.794;2023-04-01T01:42:51;98864.00;;;10.20
5571;BMP180;2808;51.240;6.794;2023-04-01T01:45:22;98868.00;;;10.20
5571;BMP180;2808;51.240;6.794;2023-04-01T01:47:51;98867.00;;;10.20
5571;BMP180;2808;51.240;6.794;2023-04-01T01:50:22;98866.00;;;10.10
5571;BMP180;2808;51.240;6.794;2023-04-01T01:52:51;98862.00;;;10.10
5571;BMP180;2808;51.240;6.794;2023-04-01T01:55:27;98864.00;;;10.10
5571;BMP180;2808;51.240;6.794;2023-04-01T01:57:57;98858.00;;;10.10
5571;BMP180;2808;51.240;6.794;2023-04-01T02:00:26;98858.00;;;10.10
5571;BMP180;2808;51.240;6.794;2023-04-01T02:02:54;98868.00;;;10.00
5571;BMP180;2808;51.240;6.794;2023-04-01T02:05:25;98866.00;;;10.10
5571;BMP180;2808;51.240;6.794;2023-04-01T02:07:57;98871.00;;;10.10
5571;BMP180;2808;51.240;6.794;2023-04-01T02:10:29;98864.00;;;10.10
5571;BMP180;2808;51.240;6.794;2023-04-01T02:13:01;98854.00;;;10.10
5571;BMP180;2808;51.240;6.794;2023-04-01T02:15:32;98863.00;;;10.00
5571;BMP180;2808;51.240;6.794;2023-04-01T02:18:04;98854.00;;;10.00
5571;BMP180;2808;51.240;6.794;2023-04-01T02:20:35;98869.00;;;10.00
5571;BMP180;2808;51.240;6.794;2023-04-01T02:23:05;98861.00;;;10.00
5571;BMP180;2808;51.240;6.794;2023-04-01T02:25:35;98857.00;;;10.00
5571;BMP180;2808;51.240;6.794;2023-04-01T02:28:05;98861.00;;;10.00
5571;BMP180;2808;51.240;6.794;2023-04-01T02:30:35;98857.00;;;9.90
5571;BMP180;2808;51.240;6.794;2023-04-01T02:33:04;98863.00;;;9.90
5571;BMP180;2808;51.240;6.794;2023-04-01T02:35:35;98854.00;;;9.90
5571;BMP180;2808;51.240;6.794;2023-04-01T02:38:03;98862.00;;;9.90
5571;BMP180;2808;51.240;6.794;2023-04-01T02:40:45;98860.00;;;10.00
5571;BMP180;2808;51.240;6.794;2023-04-01T02:43:12;98868.00;;;10.00
5571;BMP180;2808;51.240;6.794;2023-04-01T02:45:40;98866.00;;;10.00
5571;BMP180;2808;51.240;6.794;2023-04-01T02:48:07;98869.00;;;9.90
5571;BMP180;2808;51.240;6.794;2023-04-01T02:50:36;98877.00;;;9.90
5571;BMP180;2808;51.240;6.794;2023-04-01T02:53:03;98875.00;;;9.90
5571;BMP180;2808;51.240;6.794;2023-04-01T02:55:32;98875.00;;;9.90
5571;BMP180;2808;51.240;6.794;2023-04-01T02:58:00;98880.00;;;9.90
5571;BMP180;2808;51.240;6.794;2023-04-01T03:00:27;98873.00;;;9.90
5571;BMP180;2808;51.240;6.794;2023-04-01T03:02:55;98880.00;;;9.90
5571;BMP180;2808;51.240;6.794;2023-04-01T03:05:22;98883.00;;;9.90
5571;BMP180;2808;51.240;6.794;2023-04-01T03:07:51;98883.00;;;9.80
5571;BMP180;2808;51.240;6.794;2023-04-01T03:10:19;98884.00;;;9.90
5571;BMP180;2808;51.240;6.794;2023-04-01T03:12:46;98881.00;;;9.90
5571;BMP180;2808;51.240;6.794;2023-04-01T03:15:14;98873.00;;;9.80
5571;BMP180;2808;51.240;6.794;2023-04-01T03:17:42;98892.00;;;9.80
5571;BMP180;2808;51.240;6.794;2023-04-01T03:20:11;98891.00;;;9.80
5571;BMP180;2808;51.240;6.794;2023-04-01T03:22:38;98896.00;;;9.80
5571;BMP180;2808;51.240;6.794;2023-04-01T03:25:08;98888.00;;;9.80
5571;BMP180;2808;51.240;6.794;2023-04-01T03:27:36;98880.00;;;9.80
5571;BMP180;2808;51.240;6.794;2023-04-01T03:30:04;98892.00;;;9.80
5571;BMP180;2808;51.240;6.794;2023-04-01T03:32:31;98902.00;;;9.80
5571;BMP180;2808;51.240;6.794;2023-04-01T03:34:59;98888.00;;;9.80
5571;BMP180;2808;51.240;6.794;2023-04-01T03:37:26;98897.00;;;9.80
5571;BMP180;2808;51.240;6.794;2023-04-01T03:39:54;98898.00;;;9.80
5571;BMP180;2808;51.240;6.794;2023-04-01T03:42:22;98901.00;;;9.80
5571;BMP180;2808;51.240;6.794;2023-04-01T03:44:50;98895.00;;;9.80
5571;BMP180;2808;51.240;6.794;2023-04-01T03:47:17;98905.00;;;9.70
5571;BMP180;2808;51.240;6.794;2023-04-01T03:49:45;98901.00;;;9.80
5571;BMP180;2808;51.240;6.794;2023-04-01T03:52:12;98903.00;;;9.80
5571;BMP180;2808;51.240;6.794;2023-04-01T03:54:39;98907.00;;;9.80
5571;BMP180;2808;51.240;6.794;2023-04-01T03:57:07;98906.00;;;9.80
5571;BMP180;2808;51.240;6.794;2023-04-01T03:59:36;98900.00;;;9.80
5571;BMP180;2808;51.240;6.794;2023-04-01T04:02:03;98903.00;;;9.80
5571;BMP180;2808;51.240;6.794;2023-04-01T04:04:31;98907.00;;;9.80
5571;BMP180;2808;51.240;6.794;2023-04-01T04:06:59;98904.00;;;9.80
5571;BMP180;2808;51.240;6.794;2023-04-01T04:09:26;98905.00;;;9.80
5571;BMP180;2808;51.240;6.794;2023-04-01T04:11:53;98905.00;;;9.90
5571;BMP180;2808;51.240;6.794;2023-04-01T04:14:22;98914.00;;;9.90
5571;BMP180;2808;51.240;6.794;2023-04-01T04:16:51;98907.00;;;9.80
5571;BMP180;2808;51.240;6.794;2023-04-01T04:19:18;98903.00;;;9.90
5571;BMP180;2808;51.240;6.794;2023-04-01T04:21:46;98914.00;;;9.90
5571;BMP180;2808;51.240;6.794;2023-04-01T04:24:13;98910.00;;;9.80
5571;BMP180;2808;51.240;6.794;2023-04-01T04:26:41;98910.00;;;9.90
5571;BMP180;2808;51.240;6.794;2023-04-01T04:29:08;98911.00;;;9.90
5571;BMP180;2808;51.240;6.794;2023-04-01T04:31:36;98908.00;;;9.90
5571;BMP180;2808;51.240;6.794;2023-04-01T04:34:04;98913.00;;;9.80
5571;BMP180;2808;51.240;6.794;2023-04-01T04:36:32;98915.00;;;9.80
5571;BMP180;2808;51.240;6.794;2023-04-01T04:38:59;98919.00;;;9.80
5571;BMP180;2808;51.240;6.794;2023-04-01T04:41:28;98920.00;;;9.80
5571;BMP180;2808;51.240;6.794;2023-04-01T04:43:56;98923.00;;;9.90
5571;BMP180;2808;51.240;6.794;2023-04-01T04:46:25;98921.00;;;9.80
5571;BMP180;2808;51.240;6.794;2023-04-01T04:48:52;98923.00;;;9.90
5571;BMP180;2808;51.240;6.794;2023-04-01T04:51:22;98930.00;;;9.90
5571;BMP180;2808;51.240;6.794;2023-04-01T04:53:50;98925.00;;;9.80
5571;BMP180;2808;51.240;6.794;2023-04-01T04:56:18;98928.00;;;9.80
5571;BMP180;2808;51.240;6.794;2023-04-01T04:58:46;98926.00;;;9.80
5571;BMP180;2808;51.240;6.794;2023-04-01T05:01:15;98926.00;;;9.80
5571;BMP180;2808;51.240;6.794;2023-04-01T05:03:43;98938.00;;;9.90
5571;BMP180;2808;51.240;6.794;2023-04-01T05:06:12;98934.00;;;9.90
5571;BMP180;2808;51.240;6.794;2023-04-01T05:08:41;98931.00;;;9.90
5571;BMP180;2808;51.240;6.794;2023-04-01T05:11:11;98944.00;;;9.90
5571;BMP180;2808;51.240;6.794;2023-04-01T05:13:39;98944.00;;;9.90
5571;BMP180;2808;51.240;6.794;2023-04-01T05:16:08;98942.00;;;9.90
5571;BMP180;2808;51.240;6.794;2023-04-01T05:18:36;98940.00;;;9.90
5571;BMP180;2808;51.240;6.794;2023-04-01T05:21:03;98948.00;;;9.90
5571;BMP180;2808;51.240;6.794;2023-04-01T05:23:31;98943.00;;;9.90
5571;BMP180;2808;51.240;6.794;2023-04-01T05:26:05;98939.00;;;9.90
5571;BMP180;2808;51.240;6.794;2023-04-01T05:28:32;98948.00;;;9.90
5571;BMP180;2808;51.240;6.794;2023-04-01T05:31:01;98940.00;;;9.90
5571;BMP180;2808;51.240;6.794;2023-04-01T05:33:29;98946.00;;;9.90
5571;BMP180;2808;51.240;6.794;2023-04-01T05:36:04;98943.00;;;9.90
5571;BMP180;2808;51.240;6.794;2023-04-01T05:38:32;98958.00;;;9.90
5571;BMP180;2808;51.240;6.794;2023-04-01T05:41:11;98951.00;;;9.90
5571;BMP180;2808;51.240;6.794;2023-04-01T05:43:39;98951.00;;;9.90
5571;BMP180;2808;51.240;6.794;2023-04-01T05:46:07;98964.00;;;9.80
5571;BMP180;2808;51.240;6.794;2023-04-01T05:48:35;98962.00;;;9.90
5571;BMP180;2808;51.240;6.794;2023-04-01T05:51:03;98965.00;;;9.90
5571;BMP180;2808;51.240;6.794;2023-04-01T05:53:31;98968.00;;;9.90
5571;BMP180;2808;51.240;6.794;2023-04-01T05:56:02;98960.00;;;9.90
5571;BMP180;2808;51.240;6.794;2023-04-01T05:58:32;98972.00;;;9.90
5571;BMP180;2808;51.240;6.794;2023-04-01T06:01:04;98965.00;;;9.90
5571;BMP180;2808;51.240;6.794;2023-04-01T06:03:32;98966.00;;;9.90
5571;BMP180;2808;51.240;6.794;2023-04-01T06:05:59;98961.00;;;9.90
5571;BMP180;2808;51.240;6.794;2023-04-01T06:08:28;98966.00;;;9.90
5571;BMP180;2808;51.240;6.794;2023-04-01T06:11:10;98966.00;;;9.90
5571;BMP180;2808;51.240;6.794;2023-04-01T06:13:53;98965.00;;;9.90
5571;BMP180;2808;51.240;6.794;2023-04-01T06:16:31;98976.00;;;9.90
5571;BMP180;2808;51.240;6.794;2023-04-01T06:19:14;98963.00;;;9.90
5571;BMP180;2808;51.240;6.794;2023-04-01T06:28:00;98987.00;;;10.10
5571;BMP180;2808;51.240;6.794;2023-04-01T06:30:52;98986.00;;;10.10
5571;BMP180;2808;51.240;6.794;2023-04-01T06:33:36;98981.00;;;10.10
5571;BMP180;2808;51.240;6.794;2023-04-01T06:36:22;98984.00;;;10.10
5571;BMP180;2808;51.240;6.794;2023-04-01T06:39:15;98979.00;;;10.10
5571;BMP180;2808;51.240;6.794;2023-04-01T06:42:18;98977.00;;;10.00
5571;BMP180;2808;51.240;6.794;2023-04-01T06:44:58;98989.00;;;10.00
5571;BMP180;2808;51.240;6.794;2023-04-01T06:47:38;98986.00;;;10.00
5571;BMP180;2808;51.240;6.794;2023-04-01T06:50:16;98991.00;;;10.00
5571;BMP180;2808;51.240;6.794;2023-04-01T06:52:53;98993.00;;;10.00
5571;BMP180;2808;51.240;6.794;2023-04-01T06:55:29;98993.00;;;10.00
5571;BMP180;2808;51.240;6.794;2023-04-01T06:58:00;98992.00;;;10.00
5571;BMP180;2808;51.240;6.794;2023-04-01T07:00:32;99004.00;;;10.00
5571;BMP180;2808;51.240;6.794;2023-04-01T07:03:08;99004.00;;;10.10
5571;BMP180;2808;51.240;6.794;2023-04-01T07:05:40;98999.00;;;10.10
5571;BMP180;2808;51.240;6.794;2023-04-01T07:08:12;98998.00;;;10.20
5571;BMP180;2808;51.240;6.794;2023-04-01T07:10:45;98997.00;;;10.10
5571;BMP180;2808;51.240;6.794;2023-04-01T07:13:17;99011.00;;;10.20
5571;BMP180;2808;51.240;6.794;2023-04-01T07:15:54;99005.00;;;10.10
5571;BMP180;2808;51.240;6.794;2023-04-01T07:18:30;99003.00;;;10.10
5571;BMP180;2808;51.240;6.794;2023-04-01T07:21:01;99001.00;;;10.20
5571;BMP180;2808;51.240;6.794;2023-04-01T07:23:33;99006.00;;;10.20
5571;BMP180;2808;51.240;6.794;2023-04-01T07:26:11;99013.00;;;10.20
5571;BMP180;2808;51.240;6.794;2023-04-01T07:28:40;99018.00;;;10.30
5571;BMP180;2808;51.240;6.794;2023-04-01T07:31:19;99027.00;;;10.30
5571;BMP180;2808;51.240;6.794;2023-04-01T07:33:55;99030.00;;;10.30
5571;BMP180;2808;51.240;6.794;2023-04-01T07:36:38;99026.00;;;10.30
5571;BMP180;2808;51.240;6.794;2023-04-01T07:39:22;99032.00;;;10.30
5571;BMP180;2808;51.240;6.794;2023-04-01T07:41:54;99042.00;;;10.30
5571;BMP180;2808;51.240;6.794;2023-04-01T07:44:28;99040.00;;;10.30
5571;BMP180;2808;51.240;6.794;2023-04-01T07:47:08;99040.00;;;10.30
5571;BMP180;2808;51.240;6.794;2023-04-01T07:49:46;99040.00;;;10.30
5571;BMP180;2808;51.240;6.794;2023-04-01T07:52:23;99053.00;;;10.30
5571;BMP180;2808;51.240;6.794;2023-04-01T07:55:01;99057.00;;;10.30
5571;BMP180;2808;51.240;6.794;2023-04-01T07:57:38;99060.00;;;10.40
5571;BMP180;2808;51.240;6.794;2023-04-01T08:00:12;99062.00;;;10.40
5571;BMP180;2808;51.240;6.794;2023-04-01T08:03:01;99067.00;;;10.30
5571;BMP180;2808;51.240;6.794;2023-04-01T08:05:36;99070.00;;;10.30
5571;BMP180;2808;51.240;6.794;2023-04-01T08:08:11;99063.00;;;10.30
5571;BMP180;2808;51.240;6.794;2023-04-01T08:10:47;99067.00;;;10.30
5571;BMP180;2808;51.240;6.794;2023-04-01T08:13:29;99071.00;;;10.30
5571;BMP180;2808;51.240;6.794;2023-04-01T08:16:10;99087.00;;;10.40
5571;BMP180;2808;51.240;6.794;2023-04-01T08:18:45;99085.00;;;10.40
5571;BMP180;2808;51.240;6.794;2023-04-01T08:21:20;99091.00;;;10.50
5571;BMP180;2808;51.240;6.794;2023-04-01T08:23:52;99091.00;;;10.60
5571;BMP180;2808;51.240;6.794;2023-04-01T08:26:29;99096.00;;;10.50
5571;BMP180;2808;51.240;6.794;2023-04-01T08:29:00;99105.00;;;10.50
5571;BMP180;2808;51.240;6.794;2023-04-01T08:31:32;99105.00;;;10.50
5571;BMP180;2808;51.240;6.794;2023-04-01T08:34:03;99109.00;;;10.50
5571;BMP180;2808;51.240;6.794;2023-04-01T08:36:38;99105.00;;;10.40
5571;BMP180;2808;51.240;6.794;2023-04-01T08:39:10;99117.00;;;10.50
5571;BMP180;2808;51.240;6.794;2023-04-01T08:45:00;99113.00;;;10.50
5571;BMP180;2808;51.240;6.794;2023-04-01T08:47:50;99122.00;;;10.50
5571;BMP180;2808;51.240;6.794;2023-04-01T08:56:52;99123.00;;;10.50
5571;BMP180;2808;51.240;6.794;2023-04-01T08:59:37;99136.00;;;10.60
5571;BMP180;2808;51.240;6.794;2023-04-01T09:02:30;99141.00;;;10.60
5571;BMP180;2808;51.240;6.794;2023-04-01T09:08:09;99147.00;;;10.60
5571;BMP180;2808;51.240;6.794;2023-04-01T09:10:52;99148.00;;;10.60
5571;BMP180;2808;51.240;6.794;2023-04-01T09:13:44;99148.00;;;10.80
5571;BMP180;2808;51.240;6.794;2023-04-01T09:16:23;99153.00;;;10.80
5571;BMP180;2808;51.240;6.794;2023-04-01T09:19:11;99160.00;;;10.80
5571;BMP180;2808;51.240;6.794;2023-04-01T09:22:04;99157.00;;;10.80
5571;BMP180;2808;51.240;6.794;2023-04-01T09:24:49;99157.00;;;10.80
5571;BMP180;2808;51.240;6.794;2023-04-01T09:27:27;99169.00;;;10.90
5571;BMP180;2808;51.240;6.794;2023-04-01T09:30:17;99172.00;;;10.90
5571;BMP180;2808;51.240;6.794;2023-04-01T09:33:08;99165.00;;;11.00
5571;BMP180;2808;51.240;6.794;2023-04-01T09:35:45;99173.00;;;11.00
5571;BMP180;2808;51.240;6.794;2023-04-01T09:38:22;99179.00;;;10.90
5571;BMP180;2808;51.240;6.794;2023-04-01T09:40:55;99180.00;;;10.90
5571;BMP180;2808;51.240;6.794;2023-04-01T09:43:27;99180.00;;;10.90
5571;BMP180;2808;51.240;6.794;2023-04-01T09:46:16;99185.00;;;10.90
5571;BMP180;2808;51.240;6.794;2023-04-01T09:49:37;99191.00;;;10.90
5571;BMP180;2808;51.240;6.794;2023-04-01T09:52:21;99189.00;;;10.90
5571;BMP180;2808;51.240;6.794;2023-04-01T09:55:17;99189.00;;;10.90
5571;BMP180;2808;51.240;6.794;2023-04-01T09:58:30;99196.00;;;10.80
5571;BMP180;2808;51.240;6.794;2023-04-01T10:01:42;99200.00;;;10.80
5571;BMP180;2808;51.240;6.794;2023-04-01T10:04:37;99200.00;;;10.90
5571;BMP180;2808;51.240;6.794;2023-04-01T10:07:53;99200.00;;;10.90
5571;BMP180;2808;51.240;6.794;2023-04-01T10:17:00;99213.00;;;11.00
5571;BMP180;2808;51.240;6.794;2023-04-01T10:19:55;99220.00;;;11.10
5571;BMP180;2808;51.240;6.794;2023-04-01T10:32:29;99232.00;;;11.10
5571;BMP180;2808;51.240;6.794;2023-04-01T10:35:28;99231.00;;;11.00
5571;BMP180;2808;51.240;6.794;2023-04-01T10:38:33;99231.00;;;11.00
5571;BMP180;2808;51.240;6.794;2023-04-01T10:41:25;99237.00;;;10.90
5571;BMP180;2808;51.240;6.794;2023-04-01T10:45:09;99235.00;;;10.90
5571;BMP180;2808;51.240;6.794;2023-04-01T10:48:26;99233.00;;;10.90
5571;BMP180;2808;51.240;6.794;2023-04-01T10:54:40;99242.00;;;10.90
5571;BMP180;2808;51.240;6.794;2023-04-01T10:58:08;99240.00;;;10.90
5571;BMP180;2808;51.240;6.794;2023-04-01T11:01:14;99247.00;;;10.90
5571;BMP180;2808;51.240;6.794;2023-04-01T11:07:23;99253.00;;;10.90
5571;BMP180;2808;51.240;6.794;2023-04-01T11:11:11;99257.00;;;10.90
5571;BMP180;2808;51.240;6.794;2023-04-01T11:14:13;99259.00;;;10.90
5571;BMP180;2808;51.240;6.794;2023-04-01T11:17:14;99258.00;;;10.90
5571;BMP180;2808;51.240;6.794;2023-04-01T11:20:13;99265.00;;;11.00
5571;BMP180;2808;51.240;6.794;2023-04-01T11:23:17;99264.00;;;11.00
5571;BMP180;2808;51.240;6.794;2023-04-01T11:29:04;99266.00;;;11.10
5571;BMP180;2808;51.240;6.794;2023-04-01T11:31:50;99285.00;;;11.20
5571;BMP180;2808;51.240;6.794;2023-04-01T11:34:50;99275.00;;;11.20
5571;BMP180;2808;51.240;6.794;2023-04-01T11:37:34;99289.00;;;11.10
5571;BMP180;2808;51.240;6.794;2023-04-01T11:40:14;99282.00;;;11.10
5571;BMP180;2808;51.240;6.794;2023-04-01T11:42:55;99285.00;;;11.20
5571;BMP180;2808;51.240;6.794;2023-04-01T11:45:43;99281.00;;;11.20
5571;BMP180;2808;51.240;6.794;2023-04-01T11:48:32;99286.00;;;11.20
5571;BMP180;2808;51.240;6.794;2023-04-01T11:51:21;99293.00;;;11.30
5571;BMP180;2808;51.240;6.794;2023-04-01T11:54:05;99295.00;;;11.30
5571;BMP180;2808;51.240;6.794;2023-04-01T11:56:48;99300.00;;;11.30
5571;BMP180;2808;51.240;6.794;2023-04-01T11:59:46;99318.00;;;11.30
5571;BMP180;2808;51.240;6.794;2023-04-01T12:02:25;99298.00;;;11.30
5571;BMP180;2808;51.240;6.794;2023-04-01T12:05:32;99310.00;;;11.30
5571;BMP180;2808;51.240;6.794;2023-04-01T12:08:20;99319.00;;;11.40
5571;BMP180;2808;51.240;6.794;2023-04-01T12:11:05;99326.00;;;11.40
5571;BMP180;2808;51.240;6.794;2023-04-01T12:13:48;99322.00;;;11.30
5571;BMP180;2808;51.240;6.794;2023-04-01T12:16:45;99325.00;;;11.30
5571;BMP180;2808;51.240;6.794;2023-04-01T12:19:20;99335.00;;;11.30
5571;BMP180;2808;51.240;6.794;2023-04-01T12:21:57;99335.00;;;11.40
5571;BMP180;2808;51.240;6.794;2023-04-01T12:24:38;99334.00;;;11.40
5571;BMP180;2808;51.240;6.794;2023-04-01T12:27:31;99340.00;;;11.50
5571;BMP180;2808;51.240;6.794;2023-04-01T12:30:21;99339.00;;;11.60
5571;BMP180;2808;51.240;6.794;2023-04-01T12:33:10;99339.00;;;11.60
5571;BMP180;2808;51.240;6.794;2023-04-01T12:35:55;99354.00;;;11.70
5571;BMP180;2808;51.240;6.794;2023-04-01T12:38:30;99355.00;;;11.80
5571;BMP180;2808;51.240;6.794;2023-04-01T12:41:09;99358.00;;;11.80
5571;BMP180;2808;51.240;6.794;2023-04-01T12:44:04;99354.00;;;11.80
5571;BMP180;2808;51.240;6.794;2023-04-01T12:52:43;99370.00;;;12.00
5571;BMP180;2808;51.240;6.794;2023-04-01T12:55:39;99366.00;;;12.10
5571;BMP180;2808;51.240;6.794;2023-04-01T12:58:23;99365.00;;;12.20
5571;BMP180;2808;51.240;6.794;2023-04-01T13:07:03;99378.00;;;12.50
5571;BMP180;2808;51.240;6.794;2023-04-01T13:09:48;99382.00;;;12.30
5571;BMP180;2808;51.240;6.794;2023-04-01T13:12:36;99374.00;;;12.30
5571;BMP180;2808;51.240;6.794;2023-04-01T13:15:19;99383.00;;;12.10
5571;BMP180;2808;51.240;6.794;2023-04-01T13:17:53;99382.00;;;12.00
5571;BMP180;2808;51.240;6.794;2023-04-01T13:20:34;99391.00;;;11.90
5571;BMP180;2808;51.240;6.794;2023-04-01T13:23:18;99387.00;;;11.80
5571;BMP180;2808;51.240;6.794;2023-04-01T13:25:51;99389.00;;;11.80
5571;BMP180;2808;51.240;6.794;2023-04-01T13:28:25;99394.00;;;11.70
5571;BMP180;2808;51.240;6.794;2023-04-01T13:31:00;99407.00;;;11.70
5571;BMP180;2808;51.240;6.794;2023-04-01T13:33:35;99402.00;;;11.60
5571;BMP180;2808;51.240;6.794;2023-04-01T13:36:17;99413.00;;;11.70
5571;BMP180;2808;51.240;6.794;2023-04-01T13:38:57;99407.00;;;11.80
5571;BMP180;2808;51.240;6.794;2023-04-01T13:41:38;99401.00;;;11.80
5571;BMP180;2808;51.240;6.794;2023-04-01T13:44:14;99413.00;;;11.90
5571;BMP180;2808;51.240;6.794;2023-04-01T13:47:06;99409.00;;;11.80
5571;BMP180;2808;51.240;6.794;2023-04-01T13:50:04;99415.00;;;11.80
5571;BMP180;2808;51.240;6.794;2023-04-01T13:53:12;99411.00;;;11.70
5571;BMP180;2808;51.240;6.794;2023-04-01T13:56:00;99413.00;;;11.60
5571;BMP180;2808;51.240;6.794;2023-04-01T13:59:03;99410.00;;;11.60
5571;BMP180;2808;51.240;6.794;2023-04-01T14:01:39;99429.00;;;11.50
5571;BMP180;2808;51.240;6.794;2023-04-01T14:07:37;99435.00;;;11.50
5571;BMP180;2808;51.240;6.794;2023-04-01T14:10:19;99437.00;;;11.60
5571;BMP180;2808;51.240;6.794;2023-04-01T14:12:58;99439.00;;;11.70
5571;BMP180;2808;51.240;6.794;2023-04-01T14:15:39;99441.00;;;11.80
5571;BMP180;2808;51.240;6.794;2023-04-01T14:18:25;99442.00;;;11.90
5571;BMP180;2808;51.240;6.794;2023-04-01T14:21:12;99442.00;;;12.00
5571;BMP180;2808;51.240;6.794;2023-04-01T14:24:20;99446.00;;;11.90
5571;BMP180;2808;51.240;6.794;2023-04-01T14:27:12;99455.00;;;12.00
5571;BMP180;2808;51.240;6.794;2023-04-01T14:29:56;99452.00;;;12.10
5571;BMP180;2808;51.240;6.794;2023-04-01T14:32:32;99460.00;;;12.10
5571;BMP180;2808;51.240;6.794;2023-04-01T14:35:17;99452.00;;;12.10
5571;BMP180;2808;51.240;6.794;2023-04-01T14:38:15;99458.00;;;12.10
5571;BMP180;2808;51.240;6.794;2023-04-01T14:40:56;99465.00;;;12.10
5571;BMP180;2808;51.240;6.794;2023-04-01T14:43:44;99466.00;;;12.00
5571;BMP180;2808;51.240;6.794;2023-04-01T14:49:31;99470.00;;;11.90
5571;BMP180;2808;51.240;6.794;2023-04-01T14:52:11;99466.00;;;11.90
5571;BMP180;2808;51.240;6.794;2023-04-01T14:54:44;99459.00;;;11.90
5571;BMP180;2808;51.240;6.794;2023-04-01T14:57:16;99466.00;;;11.80
5571;BMP180;2808;51.240;6.794;2023-04-01T14:59:53;99479.00;;;11.80
5571;BMP180;2808;51.240;6.794;2023-04-01T15:02:40;99476.00;;;11.80
5571;BMP180;2808;51.240;6.794;2023-04-01T15:05:16;99491.00;;;11.80
5571;BMP180;2808;51.240;6.794;2023-04-01T15:08:03;99487.00;;;11.70
5571;BMP180;2808;51.240;6.794;2023-04-01T15:10:58;99489.00;;;11.50
5571;BMP180;2808;51.240;6.794;2023-04-01T15:16:25;99504.00;;;11.50
5571;BMP180;2808;51.240;6.794;2023-04-01T15:19:04;99512.00;;;11.50
5571;BMP180;2808;51.240;6.794;2023-04-01T15:28:04;99510.00;;;11.50
5571;BMP180;2808;51.240;6.794;2023-04-01T15:30:35;99503.00;;;11.50
5571;BMP180;2808;51.240;6.794;2023-04-01T15:33:33;99518.00;;;11.50
5571;BMP180;2808;51.240;6.794;2023-04-01T15:36:15;99520.00;;;11.50
5571;BMP180;2808;51.240;6.794;2023-04-01T15:38:49;99530.00;;;11.50
5571;BMP180;2808;51.240;6.794;2023-04-01T15:41:25;99533.00;;;11.50
5571;BMP180;2808;51.240;6.794;2023-04-01T15:43:56;99531.00;;;11.40
5571;BMP180;2808;51.240;6.794;2023-04-01T15:46:43;99523.00;;;11.30
5571;BMP180;2808;51.240;6.794;2023-04-01T15:49:30;99550.00;;;11.30
5571;BMP180;2808;51.240;6.794;2023-04-01T15:52:10;99544.00;;;11.30
5571;BMP180;2808;51.240;6.794;2023-04-01T15:55:17;99546.00;;;11.20
5571;BMP180;2808;51.240;6.794;2023-04-01T15:57:55;99545.00;;;11.20
5571;BMP180;2808;51.240;6.794;2023-04-01T16:00:27;99548.00;;;11.20
5571;BMP180;2808;51.240;6.794;2023-04-01T16:03:19;99560.00;;;11.20
5571;BMP180;2808;51.240;6.794;2023-04-01T16:06:09;99554.00;;;11.20
5571;BMP180;2808;51.240;6.794;2023-04-01T16:09:02;99555.00;;;11.20
5571;BMP180;2808;51.240;6.794;2023-04-01T16:11:40;99556.00;;;11.20
5571;BMP180;2808;51.240;6.794;2023-04-01T16:14:21;99562.00;;;11.10
5571;BMP180;2808;51.240;6.794;2023-04-01T16:17:00;99563.00;;;11.10
5571;BMP180;2808;51.240;6.794;2023-04-01T16:19:46;99571.00;;;11.10
5571;BMP180;2808;51.240;6.794;2023-04-01T16:22:22;99575.00;;;11.10
5571;BMP180;2808;51.240;6.794;2023-04-01T16:24:58;99574.00;;;11.10
5571;BMP180;2808;51.240;6.794;2023-04-01T16:27:33;99576.00;;;11.10
5571;BMP180;2808;51.240;6.794;2023-04-01T16:30:23;99581.00;;;11.10
5571;BMP180;2808;51.240;6.794;2023-04-01T16:32:57;99591.00;;;11.10
5571;BMP180;2808;51.240;6.794;2023-04-01T16:35:39;99586.00;;;11.10
5571;BMP180;2808;51.240;6.794;2023-04-01T16:38:15;99592.00;;;11.10
5571;BMP180;2808;51.240;6.794;2023-04-01T16:40:53;99599.00;;;11.10
5571;BMP180;2808;51.240;6.794;2023-04-01T16:43:30;99594.00;;;11.10
5571;BMP180;2808;51.240;6.794;2023-04-01T16:46:32;99605.00;;;11.10
5571;BMP180;2808;51.240;6.794;2023-04-01T16:49:32;99604.00;;;11.10
5571;BMP180;2808;51.240;6.794;2023-04-01T16:52:15;99615.00;;;11.00
5571;BMP180;2808;51.240;6.794;2023-04-01T16:54:47;99617.00;;;11.00
5571;BMP180;2808;51.240;6.794;2023-04-01T16:57:28;99618.00;;;11.00
5571;BMP180;2808;51.240;6.794;2023-04-01T17:00:09;99620.00;;;10.90
5571;BMP180;2808;51.240;6.794;2023-04-01T17:02:47;99628.00;;;10.90